sensor_id;sensor_type;location;lat;lon;timestamp;pressure;altitude;pressure_sealevel;temperature;humidity
6464;BME280;3265;42.694;23.282;2023-04-01T00:01:06;93782.81;;;12.10;72.42
6464;BME280;3265;42.694;23.282;2023-04-01T00:03:34;93780.44;;;12.03;72.68
6464;BME280;3265;42.694;23.282;2023-04-01T00:06:01;93791.38;;;12.05;71.98
6464;BME280;3265;42.694;23.282;2023-04-01T00:08:28;93774.63;;;11.96;72.42
6464;BME280;3265;42.694;23.282;2023-04-01T00:10:57;93783.97;;;11.92;72.41
6464;BME280;3265;42.694;23.282;2023-04-01T00:13:25;93784.03;;;11.97;72.67
6464;BME280;3265;42.694;23.282;2023-04-01T00:15:52;93755.94;;;11.72;72.98
6464;BME280;3265;42.694;23.282;2023-04-01T00:18:20;93793.66;;;11.97;72.70
6464;BME280;3265;42.694;23.282;2023-04-01T00:20:48;93787.84;;;11.89;72.66
6464;BME280;3265;42.694;23.282;2023-04-01T00:23:16;93791.03;;;11.97;72.14
6464;BME280;3265;42.694;23.282;2023-04-01T00:25:43;93792.84;;;11.96;71.53
6464;BME280;3265;42.694;23.282;2023-04-01T00:28:12;93779.31;;;11.94;71.62
6464;BME280;3265;42.694;23.282;2023-04-01T00:30:39;93781.84;;;11.89;72.33
6464;BME280;3265;42.694;23.282;2023-04-01T00:33:06;93781.28;;;11.82;72.71
6464;BME280;3265;42.694;23.282;2023-04-01T00:35:33;93777.53;;;11.73;72.36
6464;BME280;3265;42.694;23.282;2023-04-01T00:38:00;93776.03;;;11.77;73.59
6464;BME280;3265;42.694;23.282;2023-04-01T00:40:29;93784.81;;;11.71;75.81
6464;BME280;3265;42.694;23.282;2023-04-01T00:42:57;93766.84;;;11.69;77.85
6464;BME280;3265;42.694;23.282;2023-04-01T00:45:32;93778.19;;;11.63;78.08
6464;BME280;3265;42.694;23.282;2023-04-01T00:48:10;93752.31;;;11.52;78.97
6464;BME280;3265;42.694;23.282;2023-04-01T00:50:39;93767.16;;;11.51;79.63
6464;BME280;3265;42.694;23.282;2023-04-01T00:53:08;93757.59;;;11.57;79.02
6464;BME280;3265;42.694;23.282;2023-04-01T00:55:38;93749.78;;;11.57;77.77
6464;BME280;3265;42.694;23.282;2023-04-01T00:58:10;93745.88;;;11.54;78.25
6464;BME280;3265;42.694;23.282;2023-04-01T01:00:39;93741.97;;;11.57;79.06
6464;BME280;3265;42.694;23.282;2023-04-01T01:03:06;93740.38;;;11.51;77.39
6464;BME280;3265;42.694;23.282;2023-04-01T01:05:42;93722.78;;;11.36;77.92
6464;BME280;3265;42.694;23.282;2023-04-01T01:08:16;93711.69;;;11.19;79.80
6464;BME280;3265;42.694;23.282;2023-04-01T01:10:49;93714.34;;;11.24;79.67
6464;BME280;3265;42.694;23.282;2023-04-01T01:13:20;93729.72;;;11.25;79.08
6464;BME280;3265;42.694;23.282;2023-04-01T01:15:56;93715.84;;;11.20;79.19
6464;BME280;3265;42.694;23.282;2023-04-01T01:18:29;93715.31;;;11.18;80.27
6464;BME280;3265;42.694;23.282;2023-04-01T01:21:23;93711.44;;;11.20;80.37
6464;BME280;3265;42.694;23.282;2023-04-01T01:26:54;93703.13;;;11.23;80.81
6464;BME280;3265;42.694;23.282;2023-04-01T01:32:41;93687.03;;;11.26;82.79
6464;BME280;3265;42.694;23.282;2023-04-01T01:35:22;93677.69;;;11.25;81.88
6464;BME280;3265;42.694;23.282;2023-04-01T01:37:53;93676.59;;;11.21;82.76
6464;BME280;3265;42.694;23.282;2023-04-01T01:40:22;93685.78;;;11.29;82.43
6464;BME280;3265;42.694;23.282;2023-04-01T01:42:53;93684.25;;;11.33;82.05
6464;BME280;3265;42.694;23.282;2023-04-01T01:45:23;93686.81;;;11.28;82.85
6464;BME280;3265;42.694;23.282;2023-04-01T01:47:52;93689.69;;;11.31;82.84
6464;BME280;3265;42.694;23.282;2023-04-01T01:50:21;93696.81;;;11.41;82.70
6464;BME280;3265;42.694;23.282;2023-04-01T01:52:50;93682.97;;;11.35;81.81
6464;BME280;3265;42.694;23.282;2023-04-01T01:55:26;93687.91;;;11.37;81.59
6464;BME280;3265;42.694;23.282;2023-04-01T01:57:54;93679.84;;;11.33;82.59
6464;BME280;3265;42.694;23.282;2023-04-01T02:00:22;93666.00;;;11.28;83.56
6464;BME280;3265;42.694;23.282;2023-04-01T02:02:50;93676.97;;;11.35;82.01
6464;BME280;3265;42.694;23.282;2023-04-01T02:05:19;93668.94;;;11.36;80.88
6464;BME280;3265;42.694;23.282;2023-04-01T02:07:51;93666.16;;;11.16;80.76
6464;BME280;3265;42.694;23.282;2023-04-01T02:10:22;93668.28;;;11.19;80.18
6464;BME280;3265;42.694;23.282;2023-04-01T02:12:51;93667.78;;;11.22;81.26
6464;BME280;3265;42.694;23.282;2023-04-01T02:15:21;93660.75;;;11.23;80.94
6464;BME280;3265;42.694;23.282;2023-04-01T02:17:49;93659.22;;;11.27;80.18
6464;BME280;3265;42.694;23.282;2023-04-01T02:20:18;93661.78;;;11.22;79.99
6464;BME280;3265;42.694;23.282;2023-04-01T02:22:49;93650.34;;;11.23;80.81
6464;BME280;3265;42.694;23.282;2023-04-01T02:25:19;93659.72;;;11.24;81.03
6464;BME280;3265;42.694;23.282;2023-04-01T02:27:47;93655.59;;;11.28;81.74
6464;BME280;3265;42.694;23.282;2023-04-01T02:30:15;93665.56;;;11.36;81.18
6464;BME280;3265;42.694;23.282;2023-04-01T02:32:44;93660.84;;;11.33;80.77
6464;BME280;3265;42.694;23.282;2023-04-01T02:35:13;93655.59;;;11.28;81.33
6464;BME280;3265;42.694;23.282;2023-04-01T02:37:41;93665.78;;;11.34;81.09
6464;BME280;3265;42.694;23.282;2023-04-01T02:40:12;93668.19;;;11.41;80.43
6464;BME280;3265;42.694;23.282;2023-04-01T02:42:38;93669.03;;;11.47;79.55
6464;BME280;3265;42.694;23.282;2023-04-01T02:45:07;93673.69;;;11.45;79.93
6464;BME280;3265;42.694;23.282;2023-04-01T02:47:34;93672.31;;;11.37;81.00
6464;BME280;3265;42.694;23.282;2023-04-01T02:50:01;93685.09;;;11.38;81.41
6464;BME280;3265;42.694;23.282;2023-04-01T02:52:29;93672.38;;;11.42;79.53
6464;BME280;3265;42.694;23.282;2023-04-01T02:54:56;93676.19;;;11.34;79.40
6464;BME280;3265;42.694;23.282;2023-04-01T02:57:25;93691.38;;;11.43;79.82
6464;BME280;3265;42.694;23.282;2023-04-01T02:59:52;93695.50;;;11.38;78.98
6464;BME280;3265;42.694;23.282;2023-04-01T03:02:19;93706.72;;;11.44;78.71
6464;BME280;3265;42.694;23.282;2023-04-01T03:04:45;93700.59;;;11.28;78.84
6464;BME280;3265;42.694;23.282;2023-04-01T03:07:12;93707.63;;;11.28;78.63
6464;BME280;3265;42.694;23.282;2023-04-01T03:09:39;93693.47;;;11.19;79.41
6464;BME280;3265;42.694;23.282;2023-04-01T03:12:06;93701.59;;;11.22;79.75
6464;BME280;3265;42.694;23.282;2023-04-01T03:14:34;93700.53;;;11.23;78.60
6464;BME280;3265;42.694;23.282;2023-04-01T03:17:01;93707.75;;;11.16;79.35
6464;BME280;3265;42.694;23.282;2023-04-01T03:19:28;93706.03;;;11.27;78.73
6464;BME280;3265;42.694;23.282;2023-04-01T03:21:54;93686.50;;;11.24;78.82
6464;BME280;3265;42.694;23.282;2023-04-01T03:24:21;93714.00;;;11.15;78.20
6464;BME280;3265;42.694;23.282;2023-04-01T03:26:48;93715.00;;;11.14;78.67
6464;BME280;3265;42.694;23.282;2023-04-01T03:29:15;93705.75;;;11.23;78.31
6464;BME280;3265;42.694;23.282;2023-04-01T03:31:43;93696.31;;;11.17;79.71
6464;BME280;3265;42.694;23.282;2023-04-01T03:34:10;93698.13;;;11.17;79.08
6464;BME280;3265;42.694;23.282;2023-04-01T03:36:37;93694.06;;;11.26;74.09
6464;BME280;3265;42.694;23.282;2023-04-01T03:39:04;93654.97;;;11.16;73.22
6464;BME280;3265;42.694;23.282;2023-04-01T03:41:32;93674.50;;;11.45;72.92
6464;BME280;3265;42.694;23.282;2023-04-01T03:43:59;93650.09;;;11.51;73.28
6464;BME280;3265;42.694;23.282;2023-04-01T03:46:26;93642.31;;;11.56;77.93
6464;BME280;3265;42.694;23.282;2023-04-01T03:48:54;93635.22;;;11.52;79.07
6464;BME280;3265;42.694;23.282;2023-04-01T03:51:21;93621.69;;;11.50;79.67
6464;BME280;3265;42.694;23.282;2023-04-01T03:53:48;93617.28;;;11.50;79.94
6464;BME280;3265;42.694;23.282;2023-04-01T03:56:15;93605.63;;;11.58;80.35
6464;BME280;3265;42.694;23.282;2023-04-01T03:58:42;93607.19;;;11.54;79.54
6464;BME280;3265;42.694;23.282;2023-04-01T04:01:16;93580.28;;;11.43;79.75
6464;BME280;3265;42.694;23.282;2023-04-01T04:03:43;93589.94;;;11.43;80.79
6464;BME280;3265;42.694;23.282;2023-04-01T04:06:13;93582.31;;;11.36;81.54
6464;BME280;3265;42.694;23.282;2023-04-01T04:08:40;93587.81;;;11.39;80.77
6464;BME280;3265;42.694;23.282;2023-04-01T04:11:07;93578.97;;;11.40;80.61
6464;BME280;3265;42.694;23.282;2023-04-01T04:13:34;93576.00;;;11.27;82.21
6464;BME280;3265;42.694;23.282;2023-04-01T04:16:02;93566.63;;;11.26;82.37
6464;BME280;3265;42.694;23.282;2023-04-01T04:18:29;93566.41;;;11.32;82.06
6464;BME280;3265;42.694;23.282;2023-04-01T04:20:56;93563.34;;;11.40;82.26
6464;BME280;3265;42.694;23.282;2023-04-01T04:23:24;93548.56;;;11.46;82.65
6464;BME280;3265;42.694;23.282;2023-04-01T04:25:57;93554.06;;;11.50;81.46
6464;BME280;3265;42.694;23.282;2023-04-01T04:28:25;93555.63;;;11.51;80.80
6464;BME280;3265;42.694;23.282;2023-04-01T04:30:52;93572.78;;;11.52;80.87
6464;BME280;3265;42.694;23.282;2023-04-01T04:33:19;93573.75;;;11.40;79.86
6464;BME280;3265;42.694;23.282;2023-04-01T04:35:45;93553.94;;;11.34;80.59
6464;BME280;3265;42.694;23.282;2023-04-01T04:38:12;93545.81;;;11.26;81.70
6464;BME280;3265;42.694;23.282;2023-04-01T04:40:41;93554.13;;;11.23;81.67
6464;BME280;3265;42.694;23.282;2023-04-01T04:43:10;93553.75;;;11.09;80.77
6464;BME280;3265;42.694;23.282;2023-04-01T04:45:37;93542.78;;;11.02;81.83
6464;BME280;3265;42.694;23.282;2023-04-01T04:48:05;93543.31;;;11.04;82.55
6464;BME280;3265;42.694;23.282;2023-04-01T04:50:33;93515.75;;;11.03;82.96
6464;BME280;3265;42.694;23.282;2023-04-01T04:52:59;93521.88;;;11.24;82.71
6464;BME280;3265;42.694;23.282;2023-04-01T04:55:29;93520.97;;;11.08;81.92
6464;BME280;3265;42.694;23.282;2023-04-01T04:57:58;93520.75;;;11.10;82.38
6464;BME280;3265;42.694;23.282;2023-04-01T05:00:24;93521.56;;;11.15;83.06
6464;BME280;3265;42.694;23.282;2023-04-01T05:02:54;93526.56;;;11.22;82.56
6464;BME280;3265;42.694;23.282;2023-04-01T05:05:21;93516.72;;;11.29;81.71
6464;BME280;3265;42.694;23.282;2023-04-01T05:07:48;93514.91;;;11.29;81.82
6464;BME280;3265;42.694;23.282;2023-04-01T05:10:15;93509.41;;;11.26;80.31
6464;BME280;3265;42.694;23.282;2023-04-01T05:12:42;93489.28;;;11.11;80.91
6464;BME280;3265;42.694;23.282;2023-04-01T05:15:11;93504.72;;;11.23;81.03
6464;BME280;3265;42.694;23.282;2023-04-01T05:17:38;93491.16;;;11.16;80.61
6464;BME280;3265;42.694;23.282;2023-04-01T05:20:06;93504.16;;;11.16;81.51
6464;BME280;3265;42.694;23.282;2023-04-01T05:22:33;93468.44;;;11.01;81.32
6464;BME280;3265;42.694;23.282;2023-04-01T05:25:00;93456.41;;;10.90;81.53
6464;BME280;3265;42.694;23.282;2023-04-01T05:27:27;93461.31;;;10.87;80.81
6464;BME280;3265;42.694;23.282;2023-04-01T05:29:54;93482.38;;;10.90;80.66
6464;BME280;3265;42.694;23.282;2023-04-01T05:32:22;93465.16;;;10.79;80.38
6464;BME280;3265;42.694;23.282;2023-04-01T05:34:50;93489.94;;;10.92;79.89
6464;BME280;3265;42.694;23.282;2023-04-01T05:37:17;93478.16;;;10.79;80.30
6464;BME280;3265;42.694;23.282;2023-04-01T05:39:44;93477.41;;;10.89;80.06
6464;BME280;3265;42.694;23.282;2023-04-01T05:42:11;93482.56;;;10.78;81.05
6464;BME280;3265;42.694;23.282;2023-04-01T05:44:38;93471.22;;;10.90;81.10
6464;BME280;3265;42.694;23.282;2023-04-01T05:47:04;93468.94;;;10.98;80.18
6464;BME280;3265;42.694;23.282;2023-04-01T05:49:33;93474.97;;;11.09;78.71
6464;BME280;3265;42.694;23.282;2023-04-01T05:52:00;93474.75;;;11.15;78.44
6464;BME280;3265;42.694;23.282;2023-04-01T05:54:27;93472.19;;;11.20;77.76
6464;BME280;3265;42.694;23.282;2023-04-01T05:56:54;93463.59;;;11.20;77.12
6464;BME280;3265;42.694;23.282;2023-04-01T05:59:21;93470.22;;;11.37;76.17
6464;BME280;3265;42.694;23.282;2023-04-01T06:01:48;93470.78;;;11.45;75.61
6464;BME280;3265;42.694;23.282;2023-04-01T06:04:16;93474.00;;;11.62;73.80
6464;BME280;3265;42.694;23.282;2023-04-01T06:06:45;93476.94;;;11.70;73.42
6464;BME280;3265;42.694;23.282;2023-04-01T06:09:14;93474.34;;;11.80;72.39
6464;BME280;3265;42.694;23.282;2023-04-01T06:11:51;93462.19;;;11.96;69.97
6464;BME280;3265;42.694;23.282;2023-04-01T06:14:29;93466.66;;;12.06;69.54
6464;BME280;3265;42.694;23.282;2023-04-01T06:17:12;93472.69;;;12.21;68.77
6464;BME280;3265;42.694;23.282;2023-04-01T06:19:50;93453.97;;;12.29;67.88
6464;BME280;3265;42.694;23.282;2023-04-01T06:25:57;93470.38;;;12.50;65.40
6464;BME280;3265;42.694;23.282;2023-04-01T06:29:00;93467.28;;;12.68;65.08
6464;BME280;3265;42.694;23.282;2023-04-01T06:31:57;93461.31;;;12.88;63.08
6464;BME280;3265;42.694;23.282;2023-04-01T06:37:54;93464.94;;;13.02;61.98
6464;BME280;3265;42.694;23.282;2023-04-01T06:41:02;93451.91;;;13.02;62.15
6464;BME280;3265;42.694;23.282;2023-04-01T06:43:42;93440.16;;;13.04;61.13
6464;BME280;3265;42.694;23.282;2023-04-01T06:46:17;93439.94;;;13.11;60.79
6464;BME280;3265;42.694;23.282;2023-04-01T06:49:02;93434.69;;;13.06;60.77
6464;BME280;3265;42.694;23.282;2023-04-01T06:51:39;93434.94;;;13.04;60.37
6464;BME280;3265;42.694;23.282;2023-04-01T06:54:12;93417.50;;;12.90;61.01
6464;BME280;3265;42.694;23.282;2023-04-01T06:56:45;93403.16;;;12.77;61.79
6464;BME280;3265;42.694;23.282;2023-04-01T06:59:16;93417.50;;;12.90;62.07
6464;BME280;3265;42.694;23.282;2023-04-01T07:01:47;93421.41;;;12.82;62.66
6464;BME280;3265;42.694;23.282;2023-04-01T07:04:19;93427.41;;;12.83;63.99
6464;BME280;3265;42.694;23.282;2023-04-01T07:06:50;93417.25;;;12.91;64.44
6464;BME280;3265;42.694;23.282;2023-04-01T07:09:20;93426.88;;;13.01;64.70
6464;BME280;3265;42.694;23.282;2023-04-01T07:11:50;93417.53;;;13.10;63.57
6464;BME280;3265;42.694;23.282;2023-04-01T07:14:24;93417.22;;;13.17;64.81
6464;BME280;3265;42.694;23.282;2023-04-01T07:16:56;93422.94;;;13.29;63.13
6464;BME280;3265;42.694;23.282;2023-04-01T07:19:29;93414.34;;;13.23;64.08
6464;BME280;3265;42.694;23.282;2023-04-01T07:22:01;93411.97;;;13.42;65.19
6464;BME280;3265;42.694;23.282;2023-04-01T07:24:33;93391.88;;;13.37;65.26
6464;BME280;3265;42.694;23.282;2023-04-01T07:27:04;93402.81;;;13.49;64.84
6464;BME280;3265;42.694;23.282;2023-04-01T07:29:34;93430.97;;;13.52;63.14
6464;BME280;3265;42.694;23.282;2023-04-01T07:32:15;93447.66;;;13.61;62.27
6464;BME280;3265;42.694;23.282;2023-04-01T07:34:55;93396.78;;;13.59;63.50
6464;BME280;3265;42.694;23.282;2023-04-01T07:37:31;93427.03;;;13.60;62.36
6464;BME280;3265;42.694;23.282;2023-04-01T07:40:08;93410.66;;;13.34;62.04
6464;BME280;3265;42.694;23.282;2023-04-01T07:42:50;93435.88;;;13.69;61.33
6464;BME280;3265;42.694;23.282;2023-04-01T07:45:24;93422.31;;;13.67;62.93
6464;BME280;3265;42.694;23.282;2023-04-01T07:48:12;93420.47;;;13.73;62.74
6464;BME280;3265;42.694;23.282;2023-04-01T07:50:47;93423.09;;;13.68;63.40
6464;BME280;3265;42.694;23.282;2023-04-01T07:53:22;93414.97;;;13.74;61.69
6464;BME280;3265;42.694;23.282;2023-04-01T07:55:57;93405.06;;;13.71;62.56
6464;BME280;3265;42.694;23.282;2023-04-01T07:58:37;93392.06;;;13.61;62.09
6464;BME280;3265;42.694;23.282;2023-04-01T08:01:11;93418.66;;;13.73;62.37
6464;BME280;3265;42.694;23.282;2023-04-01T08:03:59;93393.28;;;13.79;61.34
6464;BME280;3265;42.694;23.282;2023-04-01T08:06:32;93384.09;;;13.86;61.80
6464;BME280;3265;42.694;23.282;2023-04-01T08:09:10;93405.72;;;14.02;61.88
6464;BME280;3265;42.694;23.282;2023-04-01T08:11:52;93404.84;;;14.16;62.46
6464;BME280;3265;42.694;23.282;2023-04-01T08:14:30;93393.06;;;14.19;61.10
6464;BME280;3265;42.694;23.282;2023-04-01T08:17:03;93385.69;;;14.31;61.68
6464;BME280;3265;42.694;23.282;2023-04-01T08:19:43;93368.47;;;14.25;61.57
6464;BME280;3265;42.694;23.282;2023-04-01T08:22:21;93375.13;;;14.46;61.61
6464;BME280;3265;42.694;23.282;2023-04-01T08:24:51;93383.84;;;14.37;61.27
6464;BME280;3265;42.694;23.282;2023-04-01T08:27:35;93347.69;;;14.44;60.48
6464;BME280;3265;42.694;23.282;2023-04-01T08:30:16;93343.19;;;14.54;61.40
6464;BME280;3265;42.694;23.282;2023-04-01T08:32:47;93355.63;;;14.67;60.83
6464;BME280;3265;42.694;23.282;2023-04-01T08:35:21;93352.91;;;14.77;59.99
6464;BME280;3265;42.694;23.282;2023-04-01T08:37:52;93342.53;;;14.96;60.47
6464;BME280;3265;42.694;23.282;2023-04-01T08:40:46;93316.06;;;15.03;59.89
6464;BME280;3265;42.694;23.282;2023-04-01T08:43:28;93321.13;;;15.18;59.58
6464;BME280;3265;42.694;23.282;2023-04-01T08:46:14;93296.41;;;15.29;59.33
6464;BME280;3265;42.694;23.282;2023-04-01T08:49:05;93290.44;;;15.47;58.02
6464;BME280;3265;42.694;23.282;2023-04-01T08:54:46;93289.56;;;15.75;56.03
6464;BME280;3265;42.694;23.282;2023-04-01T08:57:25;93293.72;;;15.95;54.88
6464;BME280;3265;42.694;23.282;2023-04-01T09:00:07;93317.41;;;16.22;53.27
6464;BME280;3265;42.694;23.282;2023-04-01T09:03:00;93307.38;;;16.29;51.15
6464;BME280;3265;42.694;23.282;2023-04-01T09:06:06;93307.31;;;16.48;51.65
6464;BME280;3265;42.694;23.282;2023-04-01T09:08:52;93309.16;;;16.66;50.68
6464;BME280;3265;42.694;23.282;2023-04-01T09:11:30;93301.19;;;16.71;50.45
6464;BME280;3265;42.694;23.282;2023-04-01T09:14:26;93301.75;;;16.68;49.25
6464;BME280;3265;42.694;23.282;2023-04-01T09:20:39;93302.16;;;16.75;48.42
6464;BME280;3265;42.694;23.282;2023-04-01T09:23:20;93299.66;;;16.84;47.88
6464;BME280;3265;42.694;23.282;2023-04-01T09:26:10;93280.41;;;16.75;47.76
6464;BME280;3265;42.694;23.282;2023-04-01T09:28:51;93283.72;;;16.80;45.82
6464;BME280;3265;42.694;23.282;2023-04-01T09:31:38;93292.09;;;16.82;45.86
6464;BME280;3265;42.694;23.282;2023-04-01T09:34:30;93284.31;;;16.91;46.57
6464;BME280;3265;42.694;23.282;2023-04-01T09:37:20;93279.75;;;16.96;46.49
6464;BME280;3265;42.694;23.282;2023-04-01T09:40:11;93272.75;;;17.06;46.42
6464;BME280;3265;42.694;23.282;2023-04-01T09:42:49;93265.09;;;17.23;47.22
6464;BME280;3265;42.694;23.282;2023-04-01T09:45:34;93232.47;;;17.37;50.48
6464;BME280;3265;42.694;23.282;2023-04-01T09:48:11;93246.91;;;18.11;49.32
6464;BME280;3265;42.694;23.282;2023-04-01T09:50:47;93236.53;;;18.59;44.16
6464;BME280;3265;42.694;23.282;2023-04-01T09:53:29;93231.72;;;18.84;37.33
6464;BME280;3265;42.694;23.282;2023-04-01T09:59:55;93225.75;;;19.09;37.01
6464;BME280;3265;42.694;23.282;2023-04-01T10:03:12;93236.47;;;19.21;35.63
6464;BME280;3265;42.694;23.282;2023-04-01T10:09:28;93198.41;;;18.88;37.69
6464;BME280;3265;42.694;23.282;2023-04-01T10:12:16;93238.72;;;18.97;35.29
6464;BME280;3265;42.694;23.282;2023-04-01T10:15:20;93213.16;;;18.58;35.25
6464;BME280;3265;42.694;23.282;2023-04-01T10:18:26;93192.91;;;18.36;36.22
6464;BME280;3265;42.694;23.282;2023-04-01T10:21:13;93191.63;;;18.56;40.00
6464;BME280;3265;42.694;23.282;2023-04-01T10:24:05;93182.38;;;18.58;40.04
6464;BME280;3265;42.694;23.282;2023-04-01T10:30:13;93194.94;;;19.09;40.00
6464;BME280;3265;42.694;23.282;2023-04-01T10:36:35;93193.44;;;18.78;40.21
6464;BME280;3265;42.694;23.282;2023-04-01T10:42:53;93177.63;;;18.78;40.47
6464;BME280;3265;42.694;23.282;2023-04-01T10:45:58;93178.19;;;18.57;41.52
6464;BME280;3265;42.694;23.282;2023-04-01T10:49:09;93159.06;;;18.43;42.81
6464;BME280;3265;42.694;23.282;2023-04-01T10:55:24;93167.31;;;18.28;43.35
6464;BME280;3265;42.694;23.282;2023-04-01T10:58:41;93160.53;;;18.05;42.98
6464;BME280;3265;42.694;23.282;2023-04-01T11:04:45;93151.28;;;18.07;43.60
6464;BME280;3265;42.694;23.282;2023-04-01T11:07:41;93157.44;;;18.03;43.58
6464;BME280;3265;42.694;23.282;2023-04-01T11:13:26;93151.22;;;17.99;43.50
6464;BME280;3265;42.694;23.282;2023-04-01T11:16:18;93155.88;;;18.02;42.92
6464;BME280;3265;42.694;23.282;2023-04-01T11:19:27;93149.25;;;17.82;44.03
6464;BME280;3265;42.694;23.282;2023-04-01T11:25:29;93165.84;;;17.69;43.62
6464;BME280;3265;42.694;23.282;2023-04-01T11:28:35;93197.75;;;17.54;41.58
6464;BME280;3265;42.694;23.282;2023-04-01T11:31:23;93234.88;;;17.47;41.81
6464;BME280;3265;42.694;23.282;2023-04-01T11:33:55;93246.88;;;17.26;46.17
6464;BME280;3265;42.694;23.282;2023-04-01T11:36:36;93233.28;;;16.97;47.42
6464;BME280;3265;42.694;23.282;2023-04-01T11:39:17;93270.00;;;16.56;52.58
6464;BME280;3265;42.694;23.282;2023-04-01T11:41:52;93285.56;;;16.15;56.25
6464;BME280;3265;42.694;23.282;2023-04-01T11:44:25;93316.38;;;15.20;68.84
6464;BME280;3265;42.694;23.282;2023-04-01T11:50:03;93352.03;;;13.01;91.19
6464;BME280;3265;42.694;23.282;2023-04-01T11:52:53;93376.59;;;12.40;96.35
6464;BME280;3265;42.694;23.282;2023-04-01T11:55:27;93386.72;;;12.16;100.00
6464;BME280;3265;42.694;23.282;2023-04-01T11:58:21;93372.38;;;12.04;100.00
6464;BME280;3265;42.694;23.282;2023-04-01T12:01:07;93389.09;;;12.18;100.00
6464;BME280;3265;42.694;23.282;2023-04-01T12:04:03;93401.06;;;12.29;100.00
6464;BME280;3265;42.694;23.282;2023-04-01T12:06:43;93357.81;;;12.08;100.00
6464;BME280;3265;42.694;23.282;2023-04-01T12:09:17;93387.25;;;12.13;100.00
6464;BME280;3265;42.694;23.282;2023-04-01T12:11:52;93373.94;;;12.10;100.00
6464;BME280;3265;42.694;23.282;2023-04-01T12:14:32;93363.81;;;12.13;100.00
6464;BME280;3265;42.694;23.282;2023-04-01T12:17:08;93349.75;;;12.24;100.00
6464;BME280;3265;42.694;23.282;2023-04-01T12:19:42;93357.06;;;12.42;100.00
6464;BME280;3265;42.694;23.282;2023-04-01T12:22:33;93360.69;;;12.62;100.00
6464;BME280;3265;42.694;23.282;2023-04-01T12:25:22;93365.38;;;12.80;100.00
6464;BME280;3265;42.694;23.282;2023-04-01T12:28:03;93369.00;;;12.94;100.00
6464;BME280;3265;42.694;23.282;2023-04-01T12:30:42;93383.34;;;13.01;100.00
6464;BME280;3265;42.694;23.282;2023-04-01T12:33:28;93389.09;;;12.83;100.00
6464;BME280;3265;42.694;23.282;2023-04-01T12:36:07;93380.75;;;12.76;100.00
6464;BME280;3265;42.694;23.282;2023-04-01T12:38:44;93382.31;;;12.62;100.00
6464;BME280;3265;42.694;23.282;2023-04-01T12:41:24;93340.13;;;12.35;100.00
6464;BME280;3265;42.694;23.282;2023-04-01T12:47:06;93363.03;;;12.53;100.00
6464;BME280;3265;42.694;23.282;2023-04-01T12:52:48;93335.44;;;12.37;100.00
6464;BME280;3265;42.694;23.282;2023-04-01T12:55:37;93351.06;;;12.52;100.00
6464;BME280;3265;42.694;23.282;2023-04-01T13:01:26;93323.16;;;12.63;100.00
6464;BME280;3265;42.694;23.282;2023-04-01T13:07:19;93319.78;;;12.72;100.00
6464;BME280;3265;42.694;23.282;2023-04-01T13:09:59;93327.06;;;12.70;100.00
6464;BME280;3265;42.694;23.282;2023-04-01T13:12:48;93293.16;;;12.70;100.00
6464;BME280;3265;42.694;23.282;2023-04-01T13:15:24;93293.16;;;12.70;100.00
6464;BME280;3265;42.694;23.282;2023-04-01T13:17:58;93296.50;;;12.91;100.00
6464;BME280;3265;42.694;23.282;2023-04-01T13:20:36;93268.59;;;12.96;100.00
6464;BME280;3265;42.694;23.282;2023-04-01T13:23:14;93298.94;;;13.46;100.00
6464;BME280;3265;42.694;23.282;2023-04-01T13:25:51;93271.34;;;13.79;98.55
6464;BME280;3265;42.694;23.282;2023-04-01T13:28:24;93277.78;;;13.92;96.72
6464;BME280;3265;42.694;23.282;2023-04-01T13:30:59;93274.94;;;14.22;96.81
6464;BME280;3265;42.694;23.282;2023-04-01T13:33:34;93286.13;;;14.61;95.44
6464;BME280;3265;42.694;23.282;2023-04-01T13:36:17;93271.09;;;15.99;88.19
6464;BME280;3265;42.694;23.282;2023-04-01T13:39:22;93275.63;;;17.72;80.22
6464;BME280;3265;42.694;23.282;2023-04-01T13:42:05;93257.81;;;19.42;74.12
6464;BME280;3265;42.694;23.282;2023-04-01T13:44:38;93258.16;;;19.74;71.22
6464;BME280;3265;42.694;23.282;2023-04-01T13:47:24;93263.00;;;19.98;73.08
6464;BME280;3265;42.694;23.282;2023-04-01T13:50:21;93257.50;;;19.52;61.76
6464;BME280;3265;42.694;23.282;2023-04-01T13:53:02;93258.88;;;19.41;61.02
6464;BME280;3265;42.694;23.282;2023-04-01T13:55:48;93247.88;;;18.99;60.97
6464;BME280;3265;42.694;23.282;2023-04-01T13:58:28;93245.53;;;18.98;61.51
6464;BME280;3265;42.694;23.282;2023-04-01T14:01:06;93236.22;;;18.92;59.66
6464;BME280;3265;42.694;23.282;2023-04-01T14:03:49;93246.94;;;18.95;59.69
6464;BME280;3265;42.694;23.282;2023-04-01T14:06:29;93234.13;;;19.11;58.99
6464;BME280;3265;42.694;23.282;2023-04-01T14:09:25;93231.47;;;19.11;58.18
6464;BME280;3265;42.694;23.282;2023-04-01T14:12:02;93205.13;;;19.02;59.70
6464;BME280;3265;42.694;23.282;2023-04-01T14:14:41;93238.59;;;19.41;57.30
6464;BME280;3265;42.694;23.282;2023-04-01T14:17:34;93224.94;;;19.39;58.87
6464;BME280;3265;42.694;23.282;2023-04-01T14:20:22;93233.94;;;19.55;58.26
6464;BME280;3265;42.694;23.282;2023-04-01T14:23:07;93223.19;;;19.35;57.43
6464;BME280;3265;42.694;23.282;2023-04-01T14:26:01;93201.06;;;18.96;59.01
6464;BME280;3265;42.694;23.282;2023-04-01T14:28:39;93192.81;;;18.50;59.42
6464;BME280;3265;42.694;23.282;2023-04-01T14:31:27;93204.66;;;18.61;58.32
6464;BME280;3265;42.694;23.282;2023-04-01T14:34:04;93187.50;;;18.63;57.34
6464;BME280;3265;42.694;23.282;2023-04-01T14:36:43;93190.03;;;18.77;55.71
6464;BME280;3265;42.694;23.282;2023-04-01T14:39:26;93195.88;;;18.74;56.77
6464;BME280;3265;42.694;23.282;2023-04-01T14:42:07;93181.63;;;18.66;57.04
6464;BME280;3265;42.694;23.282;2023-04-01T14:47:44;93191.38;;;19.22;55.30
6464;BME280;3265;42.694;23.282;2023-04-01T14:50:14;93195.44;;;19.37;55.70
6464;BME280;3265;42.694;23.282;2023-04-01T14:52:48;93181.47;;;19.28;55.35
6464;BME280;3265;42.694;23.282;2023-04-01T14:55:28;93196.50;;;19.19;53.63
6464;BME280;3265;42.694;23.282;2023-04-01T14:58:07;93196.31;;;18.67;54.78
6464;BME280;3265;42.694;23.282;2023-04-01T15:01:00;93189.78;;;18.34;56.38
6464;BME280;3265;42.694;23.282;2023-04-01T15:03:39;93195.13;;;18.21;57.67
6464;BME280;3265;42.694;23.282;2023-04-01T15:06:45;93190.84;;;18.02;58.35